createdAt,value
2018-03-25T00:01:11.054Z,99876.01
2018-03-25T00:03:38.456Z,99873.59
2018-03-25T00:06:05.834Z,99877.59
2018-03-25T00:08:33.233Z,99871.50
2018-03-25T00:11:00.614Z,99876.19
2018-03-25T00:13:28.006Z,99879.54
2018-03-25T00:15:55.458Z,99877.39
2018-03-25T00:18:22.854Z,99879.09
2018-03-25T00:20:50.262Z,99873.80
2018-03-25T00:23:17.661Z,99874.13
2018-03-25T00:25:45.079Z,99878.92
2018-03-25T00:28:12.474Z,99878.33
2018-03-25T00:30:39.858Z,99878.27
2018-03-25T00:33:07.250Z,99883.45
2018-03-25T00:35:34.639Z,99887.24
2018-03-25T00:38:02.062Z,99889.88
2018-03-25T00:40:29.451Z,99883.97
2018-03-25T00:42:56.879Z,99893.87
2018-03-25T00:45:24.263Z,99883.35
2018-03-25T00:47:51.654Z,99885.48
2018-03-25T00:50:19.037Z,99885.34
2018-03-25T00:52:46.490Z,99887.00
2018-03-25T00:55:13.881Z,99889.11
2018-03-25T00:57:41.298Z,99885.52
2018-03-25T01:00:08.702Z,99891.33
2018-03-25T01:02:36.118Z,99893.13
2018-03-25T01:05:03.592Z,99885.66
2018-03-25T01:07:30.990Z,99882.67
2018-03-25T01:09:58.380Z,99885.41
2018-03-25T01:12:25.851Z,99885.88
2018-03-25T01:14:53.246Z,99879.25
2018-03-25T01:17:20.626Z,99877.87
2018-03-25T01:19:48.026Z,99877.66
2018-03-25T01:22:15.419Z,99874.84
2018-03-25T01:24:42.814Z,99876.66
2018-03-25T01:27:10.278Z,99876.30
2018-03-25T01:29:37.738Z,99878.25
2018-03-25T01:32:05.208Z,99876.58
2018-03-25T01:34:32.602Z,99872.86
2018-03-25T01:37:00.098Z,99871.12
2018-03-25T01:39:27.566Z,99878.03
2018-03-25T01:41:55.019Z,99871.55
2018-03-25T01:44:22.477Z,99870.41
2018-03-25T01:46:49.870Z,99879.19
2018-03-25T01:49:17.258Z,99871.59
2018-03-25T01:51:44.647Z,99868.88
2018-03-25T01:54:12.102Z,99864.75
2018-03-25T01:56:39.491Z,99864.44
2018-03-25T01:59:06.882Z,99873.73
2018-03-25T02:01:34.267Z,99864.15
2018-03-25T02:04:01.668Z,99865.53
2018-03-25T02:06:29.079Z,99871.95
2018-03-25T02:08:56.468Z,99861.56
2018-03-25T02:11:23.886Z,99866.90
2018-03-25T02:13:51.348Z,99862.77
2018-03-25T02:16:18.735Z,99860.13
2018-03-25T02:18:46.140Z,99862.89
2018-03-25T02:21:13.523Z,99855.61
2018-03-25T02:23:40.925Z,99857.17
2018-03-25T02:26:08.305Z,99857.53
2018-03-25T02:28:35.691Z,99859.69
2018-03-25T02:31:03.087Z,99866.76
2018-03-25T02:33:30.480Z,99871.48
2018-03-25T02:35:57.942Z,99873.27
2018-03-25T02:38:25.602Z,99870.82
2018-03-25T02:40:53.160Z,99873.39
2018-03-25T02:43:20.615Z,99876.27
2018-03-25T02:45:48.002Z,99878.17
2018-03-25T02:48:15.438Z,99866.41
2018-03-25T02:50:42.888Z,99872.44
2018-03-25T02:53:10.279Z,99867.60
2018-03-25T02:55:37.676Z,99872.77
2018-03-25T02:58:05.070Z,99876.08
2018-03-25T03:00:32.480Z,99868.08
2018-03-25T03:02:59.867Z,99874.65
2018-03-25T03:05:27.251Z,99882.17
2018-03-25T03:07:54.721Z,99874.79
2018-03-25T03:10:22.126Z,99880.99
2018-03-25T03:12:49.515Z,99878.89
2018-03-25T03:15:16.906Z,99887.48
2018-03-25T03:17:44.291Z,99884.80
2018-03-25T03:20:11.691Z,99892.23
2018-03-25T03:22:39.092Z,99886.89
2018-03-25T03:25:06.544Z,99890.76
2018-03-25T03:27:33.942Z,99897.66
2018-03-25T03:30:01.339Z,99898.78
2018-03-25T03:32:28.807Z,99899.47
2018-03-25T03:34:56.254Z,99903.17
2018-03-25T03:37:23.666Z,99900.78
2018-03-25T03:39:51.085Z,99908.22
2018-03-25T03:42:18.579Z,99904.55
2018-03-25T03:44:45.974Z,99911.14
2018-03-25T03:47:13.368Z,99913.59
2018-03-25T03:49:40.841Z,99915.06
2018-03-25T03:52:08.307Z,99915.28
2018-03-25T03:54:35.704Z,99910.16
2018-03-25T03:57:03.123Z,99916.15
2018-03-25T03:59:30.590Z,99906.11
2018-03-25T04:01:58.039Z,99913.88
2018-03-25T04:04:25.430Z,99918.97
2018-03-25T04:06:52.820Z,99912.77
2018-03-25T04:09:20.295Z,99918.58
2018-03-25T04:11:47.686Z,99919.86
2018-03-25T04:14:15.077Z,99910.03
2018-03-25T04:16:42.563Z,99911.19
2018-03-25T04:19:10.026Z,99921.73
2018-03-25T04:21:37.474Z,99919.52
2018-03-25T04:24:04.870Z,99916.42
2018-03-25T04:26:32.260Z,99917.09
2018-03-25T04:28:59.651Z,99915.91
2018-03-25T04:31:27.038Z,99923.77
2018-03-25T04:33:54.450Z,99921.72
2018-03-25T04:36:21.834Z,99926.47
2018-03-25T04:38:49.223Z,99927.70
2018-03-25T04:41:16.616Z,99920.88
2018-03-25T04:43:44.081Z,99924.10
2018-03-25T04:46:11.467Z,99925.78
2018-03-25T04:48:38.851Z,99920.45
2018-03-25T04:51:06.238Z,99927.27
2018-03-25T04:53:33.634Z,99917.05
2018-03-25T04:56:01.052Z,99921.88
2018-03-25T04:58:28.524Z,99919.09
2018-03-25T05:00:55.929Z,99930.19
2018-03-25T05:03:23.364Z,99925.87
2018-03-25T05:05:50.759Z,99922.91
2018-03-25T05:08:18.142Z,99926.48
2018-03-25T05:10:45.542Z,99922.14
2018-03-25T05:13:12.934Z,99917.77
2018-03-25T05:15:40.426Z,99914.48
2018-03-25T05:18:07.813Z,99921.25
2018-03-25T05:20:35.255Z,99923.61
2018-03-25T05:23:02.642Z,99921.53
2018-03-25T05:25:30.055Z,99922.31
2018-03-25T05:27:57.449Z,99926.23
2018-03-25T05:30:24.838Z,99928.59
2018-03-25T05:32:52.223Z,99932.66
2018-03-25T05:35:19.622Z,99938.12
2018-03-25T05:37:47.008Z,99938.67
2018-03-25T05:40:14.403Z,99939.98
2018-03-25T05:42:41.788Z,99941.01
2018-03-25T05:45:09.182Z,99937.11
2018-03-25T05:47:36.574Z,99943.48
2018-03-25T05:50:03.968Z,99944.80
2018-03-25T05:52:31.451Z,99945.82
2018-03-25T05:54:58.915Z,99944.72
2018-03-25T05:57:26.362Z,99947.27
2018-03-25T05:59:53.762Z,99950.69
2018-03-25T06:02:21.153Z,99958.00
2018-03-25T06:04:48.552Z,99959.54
2018-03-25T06:07:15.939Z,99951.97
2018-03-25T06:09:43.335Z,99964.70
2018-03-25T06:12:10.817Z,99961.67
2018-03-25T06:14:38.210Z,99967.99
2018-03-25T06:17:05.602Z,99966.05
2018-03-25T06:19:33.007Z,99965.66
2018-03-25T06:22:00.382Z,99974.52
2018-03-25T06:24:27.897Z,99972.47
2018-03-25T06:26:55.279Z,99975.70
2018-03-25T06:29:22.686Z,99979.03
2018-03-25T06:31:50.156Z,99979.80
2018-03-25T06:34:17.602Z,99982.54
2018-03-25T06:36:44.994Z,99976.28
2018-03-25T06:39:12.402Z,99983.77
2018-03-25T06:41:39.796Z,99984.83
2018-03-25T06:44:07.183Z,99983.36
2018-03-25T06:46:34.674Z,99985.34
2018-03-25T06:49:02.143Z,99995.39
2018-03-25T06:51:29.540Z,100002.59
2018-03-25T06:53:56.943Z,100000.66
2018-03-25T06:56:24.344Z,100004.83
2018-03-25T06:58:51.735Z,100009.84
2018-03-25T07:01:19.159Z,100009.58
2018-03-25T07:03:46.582Z,100010.71
2018-03-25T07:06:13.976Z,100022.31
2018-03-25T07:08:41.376Z,100027.44
2018-03-25T07:11:08.773Z,100028.67
2018-03-25T07:13:36.163Z,100027.83
2018-03-25T07:16:03.647Z,100027.24
2018-03-25T07:18:31.038Z,100030.99
2018-03-25T07:20:58.451Z,100024.62
2018-03-25T07:23:25.926Z,100026.26
2018-03-25T07:25:53.314Z,100030.66
2018-03-25T07:28:20.707Z,100033.66
2018-03-25T07:30:48.152Z,100039.17
2018-03-25T07:33:15.535Z,100042.36
2018-03-25T07:35:42.987Z,100049.12
2018-03-25T07:38:10.383Z,100051.33
2018-03-25T07:40:37.794Z,100049.52
2018-03-25T07:43:05.189Z,100051.66
2018-03-25T07:45:32.679Z,100048.81
2018-03-25T07:48:00.003Z,100047.87
2018-03-25T07:50:27.414Z,100050.05
2018-03-25T07:52:54.807Z,100046.97
2018-03-25T07:55:22.193Z,100050.56
2018-03-25T07:57:49.694Z,100049.06
2018-03-25T08:00:17.086Z,100053.02
2018-03-25T08:02:44.475Z,100051.08
2018-03-25T08:05:11.870Z,100056.70
2018-03-25T08:07:39.307Z,100063.90
2018-03-25T08:10:06.703Z,100067.41
2018-03-25T08:12:34.103Z,100067.16
2018-03-25T08:15:01.495Z,100071.36
2018-03-25T08:17:28.896Z,100069.22
2018-03-25T08:19:56.387Z,100072.97
2018-03-25T08:22:23.803Z,100072.10
2018-03-25T08:24:51.189Z,100070.57
2018-03-25T08:27:18.603Z,100077.98
2018-03-25T08:29:45.992Z,100075.81
2018-03-25T08:32:13.477Z,100082.86
2018-03-25T08:34:40.884Z,100085.15
2018-03-25T08:37:08.278Z,100089.14
2018-03-25T08:39:35.727Z,100082.16
2018-03-25T08:42:03.142Z,100087.68
2018-03-25T08:44:30.521Z,100088.50
2018-03-25T08:46:57.927Z,100082.91
2018-03-25T08:49:25.330Z,100082.48
2018-03-25T08:51:52.807Z,100079.05
2018-03-25T08:54:20.267Z,100078.95
2018-03-25T08:56:47.666Z,100080.59
2018-03-25T08:59:15.059Z,100083.83
2018-03-25T09:01:42.531Z,100082.09
2018-03-25T09:04:09.987Z,100081.73
2018-03-25T09:06:37.390Z,100082.02
2018-03-25T09:09:04.787Z,100081.79
2018-03-25T09:11:32.254Z,100078.99
2018-03-25T09:13:59.643Z,100083.34
2018-03-25T09:16:27.048Z,100082.78
2018-03-25T09:18:54.436Z,100080.97
2018-03-25T09:21:21.835Z,100086.69
2018-03-25T09:23:49.231Z,100088.20
2018-03-25T09:26:16.631Z,100083.56
2018-03-25T09:28:44.036Z,100084.69
2018-03-25T09:31:11.499Z,100090.40
2018-03-25T09:33:38.891Z,100085.45
2018-03-25T09:36:06.310Z,100087.45
2018-03-25T09:38:33.702Z,100090.05
2018-03-25T09:41:01.115Z,100087.74
2018-03-25T09:43:28.499Z,100094.00
2018-03-25T09:45:55.934Z,100091.66
2018-03-25T09:48:23.327Z,100094.75
2018-03-25T09:50:50.750Z,100092.56
2018-03-25T09:53:18.151Z,100099.61
2018-03-25T09:55:45.559Z,100094.67
2018-03-25T09:58:12.953Z,100098.70
2018-03-25T10:00:40.360Z,100094.64
2018-03-25T10:03:13.377Z,100086.82
2018-03-25T10:05:40.840Z,100096.22
2018-03-25T10:08:08.230Z,100094.70
2018-03-25T10:10:35.690Z,100096.42
2018-03-25T10:13:03.090Z,100100.91
2018-03-25T10:15:30.482Z,100099.70
2018-03-25T10:17:57.898Z,100097.53
2018-03-25T10:20:25.294Z,100103.88
2018-03-25T10:22:52.770Z,100094.15
2018-03-25T10:25:21.163Z,100096.36
2018-03-25T10:27:48.568Z,100103.31
2018-03-25T10:30:15.958Z,100104.36
2018-03-25T10:32:43.362Z,100107.76
2018-03-25T10:35:10.766Z,100103.30
2018-03-25T10:37:38.167Z,100107.48
2018-03-25T10:40:05.567Z,100106.77
2018-03-25T10:42:33.039Z,100105.60
2018-03-25T10:45:00.504Z,100110.42
2018-03-25T10:47:27.916Z,100105.52
2018-03-25T10:49:55.414Z,100102.33
2018-03-25T10:52:22.823Z,100106.64
2018-03-25T10:54:50.446Z,100102.09
2018-03-25T10:57:17.896Z,100101.13
2018-03-25T10:59:45.295Z,100104.03
2018-03-25T11:02:12.719Z,100090.67
2018-03-25T11:04:40.170Z,100095.22
2018-03-25T11:07:07.515Z,100100.86
2018-03-25T11:09:34.920Z,100105.69
2018-03-25T11:12:02.355Z,100108.36
2018-03-25T11:14:29.754Z,100104.63
2018-03-25T11:16:57.156Z,100105.52
2018-03-25T11:19:24.555Z,100105.01
2018-03-25T11:21:51.977Z,100104.83
2018-03-25T11:24:19.346Z,100108.14
2018-03-25T11:26:46.738Z,100104.08
2018-03-25T11:29:14.152Z,100102.20
2018-03-25T11:31:41.589Z,100107.47
2018-03-25T11:34:08.992Z,100105.59
2018-03-25T11:36:36.387Z,100110.90
2018-03-25T11:39:03.791Z,100102.84
2018-03-25T11:41:31.182Z,100106.64
2018-03-25T11:43:58.614Z,100114.17
2018-03-25T11:46:26.071Z,100111.42
2018-03-25T11:48:53.529Z,100109.84
2018-03-25T11:51:20.989Z,100117.54
2018-03-25T11:53:48.441Z,100108.84
2018-03-25T11:56:15.832Z,100106.74
2018-03-25T11:58:43.230Z,100106.03
2018-03-25T12:01:10.631Z,100108.64
2018-03-25T12:03:38.038Z,100103.91
2018-03-25T12:06:05.435Z,100108.41
2018-03-25T12:08:32.842Z,100111.19
2018-03-25T12:11:00.336Z,100114.61
2018-03-25T12:13:27.754Z,100121.00
2018-03-25T12:15:55.152Z,100117.69
2018-03-25T12:18:22.627Z,100117.06
2018-03-25T12:20:50.007Z,100118.42
2018-03-25T12:23:17.413Z,100118.66
2018-03-25T12:25:44.806Z,100122.46
2018-03-25T12:28:12.226Z,100113.98
2018-03-25T12:30:39.687Z,100114.95
2018-03-25T12:33:07.087Z,100118.18
2018-03-25T12:35:35.369Z,100121.70
2018-03-25T12:38:02.817Z,100121.84
2018-03-25T12:40:30.231Z,100123.31
2018-03-25T12:42:57.804Z,100122.27
2018-03-25T12:45:25.191Z,100115.31
2018-03-25T12:47:52.607Z,100114.92
2018-03-25T12:50:20.003Z,100115.70
2018-03-25T12:52:47.415Z,100109.89
2018-03-25T12:55:14.822Z,100112.07
2018-03-25T12:57:42.210Z,100111.16
2018-03-25T13:00:09.615Z,100110.72
2018-03-25T13:02:37.039Z,100110.04
2018-03-25T13:05:04.438Z,100108.02
2018-03-25T13:07:31.839Z,100112.64
2018-03-25T13:09:59.243Z,100107.86
2018-03-25T13:12:26.663Z,100108.19
2018-03-25T13:14:54.123Z,100112.06
2018-03-25T13:17:21.583Z,100110.78
2018-03-25T13:19:49.030Z,100107.00
2018-03-25T13:22:16.423Z,100111.98
2018-03-25T13:24:43.829Z,100116.73
2018-03-25T13:27:11.268Z,100114.89
2018-03-25T13:29:38.666Z,100117.47
2018-03-25T13:32:06.211Z,100119.40
2018-03-25T13:34:33.606Z,100117.45
2018-03-25T13:37:01.011Z,100116.88
2018-03-25T13:39:28.438Z,100113.78
2018-03-25T13:41:55.838Z,100112.45
2018-03-25T13:44:23.238Z,100116.56
2018-03-25T13:46:50.690Z,100112.36
2018-03-25T13:49:18.098Z,100115.86
2018-03-25T13:51:45.491Z,100120.20
2018-03-25T13:54:12.975Z,100116.44
2018-03-25T13:56:40.436Z,100123.61
2018-03-25T13:59:07.891Z,100118.69
2018-03-25T14:01:35.347Z,100119.52
2018-03-25T14:04:02.807Z,100122.53
2018-03-25T14:06:30.262Z,100114.91
2018-03-25T14:08:57.733Z,100116.66
2018-03-25T14:11:25.127Z,100111.98
2018-03-25T14:13:52.527Z,100113.85
2018-03-25T14:16:19.928Z,100110.44
2018-03-25T14:18:47.342Z,100108.89
2018-03-25T14:21:14.742Z,100105.92
2018-03-25T14:23:42.134Z,100101.92
2018-03-25T14:26:09.611Z,100098.20
2018-03-25T14:28:37.010Z,100102.53
2018-03-25T14:31:04.445Z,100105.64
2018-03-25T14:33:31.830Z,100099.73
2018-03-25T14:35:59.230Z,100101.87
2018-03-25T14:38:26.622Z,100106.55
2018-03-25T14:40:54.057Z,100104.95
2018-03-25T14:43:21.503Z,100105.34
2018-03-25T14:45:48.902Z,100106.34
2018-03-25T14:48:16.315Z,100108.98
2018-03-25T14:50:43.723Z,100100.23
2018-03-25T14:53:11.119Z,100108.53
2018-03-25T14:55:38.527Z,100108.94
2018-03-25T14:58:05.949Z,100106.97
2018-03-25T15:00:33.359Z,100113.73
2018-03-25T15:03:00.747Z,100111.06
2018-03-25T15:05:28.147Z,100105.32
2018-03-25T15:07:55.561Z,100113.62
2018-03-25T15:10:23.137Z,100110.33
2018-03-25T15:12:50.587Z,100115.14
2018-03-25T15:15:18.038Z,100112.34
2018-03-25T15:17:45.435Z,100111.20
2018-03-25T15:20:12.836Z,100111.58
2018-03-25T15:22:40.323Z,100113.44
2018-03-25T15:25:07.731Z,100114.14
2018-03-25T15:27:35.124Z,100116.02
2018-03-25T15:30:02.568Z,100118.09
2018-03-25T15:32:29.975Z,100114.95
2018-03-25T15:34:57.383Z,100117.48
2018-03-25T15:37:25.660Z,100120.52
2018-03-25T15:39:53.060Z,100126.05
2018-03-25T15:42:20.523Z,100126.57
2018-03-25T15:44:47.927Z,100125.48
2018-03-25T15:47:15.339Z,100125.83
2018-03-25T15:49:42.792Z,100125.52
2018-03-25T15:52:10.263Z,100134.16
2018-03-25T15:54:37.670Z,100128.33
2018-03-25T15:57:05.167Z,100131.70
2018-03-25T15:59:32.627Z,100129.47
2018-03-25T16:02:00.080Z,100129.23
2018-03-25T16:04:27.487Z,100138.33
2018-03-25T16:06:54.889Z,100137.46
2018-03-25T16:09:22.342Z,100136.94
2018-03-25T16:11:49.812Z,100136.23
2018-03-25T16:14:17.212Z,100134.22
2018-03-25T16:16:44.718Z,100138.23
2018-03-25T16:19:12.171Z,100140.95
2018-03-25T16:21:39.571Z,100145.06
2018-03-25T16:24:06.991Z,100142.96
2018-03-25T16:26:34.390Z,100144.72
2018-03-25T16:29:01.779Z,100146.29
2018-03-25T16:31:29.191Z,100146.88
2018-03-25T16:33:56.578Z,100151.09
2018-03-25T16:36:24.145Z,100149.83
2018-03-25T16:38:51.523Z,100155.23
2018-03-25T16:41:18.978Z,100153.69
2018-03-25T16:43:46.373Z,100147.81
2018-03-25T16:46:13.788Z,100157.26
2018-03-25T16:48:41.186Z,100159.03
2018-03-25T16:51:08.587Z,100158.99
2018-03-25T16:53:35.988Z,100156.96
2018-03-25T16:56:03.434Z,100162.41
2018-03-25T16:58:30.835Z,100163.31
2018-03-25T17:00:58.253Z,100157.83
2018-03-25T17:03:25.715Z,100171.82
2018-03-25T17:05:53.172Z,100170.99
2018-03-25T17:08:20.559Z,100168.92
2018-03-25T17:10:47.980Z,100181.06
2018-03-25T17:13:15.374Z,100178.47
2018-03-25T17:15:42.785Z,100182.36
2018-03-25T17:18:10.258Z,100182.11
2018-03-25T17:20:37.659Z,100187.46
2018-03-25T17:23:05.059Z,100187.46
2018-03-25T17:25:32.514Z,100195.05
2018-03-25T17:27:59.927Z,100190.38
2018-03-25T17:30:27.322Z,100195.87
2018-03-25T17:32:54.715Z,100199.17
2018-03-25T17:35:22.139Z,100203.36
2018-03-25T17:37:49.546Z,100201.55
2018-03-25T17:40:16.943Z,100209.84
2018-03-25T17:42:44.335Z,100209.48
2018-03-25T17:45:11.754Z,100213.32
2018-03-25T17:47:39.134Z,100209.78
2018-03-25T17:50:06.580Z,100209.28
2018-03-25T17:52:33.972Z,100216.45
2018-03-25T17:55:01.365Z,100218.70
2018-03-25T17:57:28.835Z,100217.80
2018-03-25T17:59:56.307Z,100221.25
2018-03-25T18:02:23.719Z,100223.17
2018-03-25T18:04:51.121Z,100234.59
2018-03-25T18:07:18.524Z,100240.69
2018-03-25T18:09:45.914Z,100238.53
2018-03-25T18:12:13.386Z,100243.12
2018-03-25T18:14:40.842Z,100249.25
2018-03-25T18:17:08.310Z,100250.19
2018-03-25T18:19:35.702Z,100257.08
2018-03-25T18:22:03.103Z,100258.72
2018-03-25T18:24:30.550Z,100253.83
2018-03-25T18:26:57.923Z,100255.95
2018-03-25T18:29:25.323Z,100267.37
2018-03-25T18:31:52.726Z,100269.29
2018-03-25T18:34:20.136Z,100270.75
2018-03-25T18:36:47.570Z,100268.44
2018-03-25T18:39:15.018Z,100265.20
2018-03-25T18:41:42.419Z,100272.12
2018-03-25T18:44:09.919Z,100273.23
2018-03-25T18:46:37.322Z,100278.14
2018-03-25T18:49:04.724Z,100269.64
2018-03-25T18:51:32.126Z,100273.73
2018-03-25T18:53:59.543Z,100277.61
2018-03-25T18:56:26.949Z,100275.70
2018-03-25T18:58:54.462Z,100276.29
2018-03-25T19:01:21.862Z,100270.92
2018-03-25T19:03:49.362Z,100275.55
2018-03-25T19:06:16.762Z,100274.45
2018-03-25T19:08:44.162Z,100278.06
2018-03-25T19:11:11.554Z,100277.78
2018-03-25T19:13:38.951Z,100282.27
2018-03-25T19:16:06.362Z,100280.08
2018-03-25T19:18:33.818Z,100285.49
2018-03-25T19:21:01.223Z,100290.72
2018-03-25T19:23:28.634Z,100295.30
2018-03-25T19:25:56.035Z,100293.72
2018-03-25T19:28:23.434Z,100295.72
2018-03-25T19:30:50.890Z,100297.95
2018-03-25T19:33:18.282Z,100294.23
2018-03-25T19:35:45.683Z,100297.66
2018-03-25T19:38:13.092Z,100304.56
2018-03-25T19:40:40.549Z,100292.95
2018-03-25T19:43:07.875Z,100294.50
2018-03-25T19:45:35.298Z,100296.23
2018-03-25T19:48:02.695Z,100293.30
2018-03-25T19:50:30.117Z,100298.66
2018-03-25T19:52:57.597Z,100298.88
2018-03-25T19:55:25.059Z,100291.95
2018-03-25T19:57:52.503Z,100293.84
2018-03-25T20:00:19.968Z,100296.81
2018-03-25T20:02:47.366Z,100295.04
2018-03-25T20:05:14.874Z,100298.04
2018-03-25T20:07:42.336Z,100295.98
2018-03-25T20:10:09.782Z,100303.78
2018-03-25T20:12:37.193Z,100299.42
2018-03-25T20:15:04.611Z,100301.19
2018-03-25T20:17:32.046Z,100300.77
2018-03-25T20:19:59.439Z,100301.67
2018-03-25T20:22:26.879Z,100296.64
2018-03-25T20:24:54.275Z,100306.27
2018-03-25T20:27:21.791Z,100301.77
2018-03-25T20:29:49.186Z,100308.55
2018-03-25T20:32:16.741Z,100304.16
2018-03-25T20:34:44.131Z,100309.33
2018-03-25T20:37:11.623Z,100308.45
2018-03-25T20:39:39.070Z,100314.61
2018-03-25T20:42:06.471Z,100312.98
2018-03-25T20:44:33.884Z,100311.92
2018-03-25T20:47:01.341Z,100313.22
2018-03-25T20:49:28.704Z,100316.33
2018-03-25T20:51:56.111Z,100315.73
2018-03-25T20:54:23.606Z,100320.69
2018-03-25T20:56:51.016Z,100320.55
2018-03-25T20:59:18.415Z,100317.42
2018-03-25T21:01:45.814Z,100327.83
2018-03-25T21:04:13.240Z,100330.75
2018-03-25T21:06:40.683Z,100334.99
2018-03-25T21:09:08.147Z,100331.52
2018-03-25T21:11:35.591Z,100328.66
2018-03-25T21:14:02.987Z,100331.03
2018-03-25T21:16:30.394Z,100334.97
2018-03-25T21:18:57.860Z,100340.73
2018-03-25T21:21:25.258Z,100339.17
2018-03-25T21:23:52.673Z,100338.60
2018-03-25T21:26:20.090Z,100343.46
2018-03-25T21:28:47.582Z,100340.79
2018-03-25T21:31:14.994Z,100345.34
2018-03-25T21:33:42.386Z,100350.71
2018-03-25T21:36:09.786Z,100342.52
2018-03-25T21:38:37.207Z,100349.52
2018-03-25T21:41:04.606Z,100350.39
2018-03-25T21:43:32.016Z,100348.61
2018-03-25T21:45:59.471Z,100348.30
2018-03-25T21:48:26.928Z,100345.72
2018-03-25T21:50:54.380Z,100347.55
2018-03-25T21:53:21.838Z,100344.53
2018-03-25T21:55:49.291Z,100348.97
2018-03-25T21:58:16.699Z,100341.28
2018-03-25T22:00:44.136Z,100344.67
2018-03-25T22:03:11.577Z,100348.73
2018-03-25T22:05:39.050Z,100344.58
2018-03-25T22:08:06.487Z,100342.91
2018-03-25T22:10:33.891Z,100344.35
2018-03-25T22:13:01.284Z,100352.78
2018-03-25T22:15:28.689Z,100348.42
2018-03-25T22:17:56.114Z,100356.89
2018-03-25T22:20:23.515Z,100354.60
2018-03-25T22:22:50.931Z,100356.17
2018-03-25T22:25:18.323Z,100354.51
2018-03-25T22:27:45.722Z,100352.98
2018-03-25T22:30:13.193Z,100353.91
2018-03-25T22:32:40.659Z,100359.53
2018-03-25T22:35:08.102Z,100353.00
2018-03-25T22:37:35.505Z,100360.41
2018-03-25T22:40:02.900Z,100356.04
2018-03-25T22:42:30.302Z,100350.52
2018-03-25T22:44:57.747Z,100351.06
2018-03-25T22:47:25.083Z,100354.09
2018-03-25T22:49:52.539Z,100350.50
2018-03-25T22:52:19.934Z,100356.55
2018-03-25T22:54:47.333Z,100351.27
2018-03-25T22:57:14.730Z,100356.38
2018-03-25T22:59:42.151Z,100353.98
2018-03-25T23:02:09.534Z,100361.31
2018-03-25T23:04:36.933Z,100356.48
2018-03-25T23:07:04.323Z,100355.75
2018-03-25T23:09:31.796Z,100356.46
2018-03-25T23:11:59.178Z,100352.80
2018-03-25T23:14:26.562Z,100352.64
2018-03-25T23:16:54.048Z,100352.73
2018-03-25T23:19:21.811Z,100351.19
2018-03-25T23:21:49.214Z,100346.59
2018-03-25T23:24:16.606Z,100349.45
2018-03-25T23:26:44.034Z,100345.77
2018-03-25T23:29:11.432Z,100342.91
2018-03-25T23:31:38.818Z,100348.61
2018-03-25T23:34:06.227Z,100342.63
2018-03-25T23:36:33.662Z,100345.89
2018-03-25T23:39:01.063Z,100345.63
2018-03-25T23:41:28.451Z,100349.25
2018-03-25T23:43:55.844Z,100345.63
2018-03-25T23:46:23.243Z,100348.52
2018-03-25T23:48:50.634Z,100348.13
2018-03-25T23:51:18.028Z,100347.66
2018-03-25T23:53:45.438Z,100350.48
2018-03-25T23:56:12.826Z,100356.94
2018-03-25T23:58:40.242Z,100361.73
